Terminal Aerodrome Forecast
Issued by NWS Louisville, KY

Home | Current Version | Previous Version | Text Only | Print | Product List | Glossary On
Versions: 1 2 3 4 5 6 7 8 9 10 11 12 13 14 15 16 17 18 19
811
FTUS43 KLMK 191120
TAFBWG
TAF
KBWG 191120Z 1912/2012 10004KT P6SM -SHRA SCT025 OVC040
     FM191400 09004KT P6SM VCSH BKN025
     FM191700 11004KT 5SM -SHRA OVC015
     FM191900 14007KT 3SM -SHRA BR OVC007
     FM200100 17004KT 2SM RA BR OVC003
     FM200700 21004KT 4SM BR VCSH BKN003=

USA.gov is the U.S. government's official web portal to all federal, state and local government web resources and services.